Time;durP1;ratioP1;P1;durP2;ratioP2;P2;SDS_P1;SDS_P2;PMS_P1;PMS_P2;Temp;Humidity;BMP_temperature;BMP_pressure;BME280_temperature;BME280_humidity;BME280_pressure;Samples;Min_cycle;Max_cycle;Signal;HPM_P1;HPM_P2
2022/06/03 00:01:34;;;;;;;;;;;16.50;99.90;;;;;;5094126;28;19919;-70
2022/06/03 00:04:18;;;;;;;;;;;16.50;99.90;;;;;;5095094;28;19912;-70
2022/06/03 00:07:16;;;;;;;;;;;16.40;99.90;;;;;;5094950;28;19927;-70
2022/06/03 00:10:00;;;;;;;;;;;16.40;99.90;;;;;;5060750;28;19912;-70
2022/06/03 00:12:28;;;;;;;;;;;16.40;99.90;;;;;;5093650;28;19913;-70
2022/06/03 00:14:59;;;;;;;;;;;16.30;99.90;;;;;;5094987;28;19912;-70
2022/06/03 00:17:25;;;;;;;;;;;16.20;99.90;;;;;;5094928;28;19918;-70
2022/06/03 00:20:09;;;;;;;;;;;16.10;99.90;;;;;;5094951;28;20331;-71
2022/06/03 00:22:54;;;;;;;;;;;16.10;99.90;;;;;;5093283;28;19934;-70
2022/06/03 00:25:29;;;;;;;;;;;16.10;99.90;;;;;;5094737;28;19920;-70
2022/06/03 00:28:13;;;;;;;;;;;16.10;99.90;;;;;;5095295;28;19916;-71
2022/06/03 00:30:41;;;;;;;;;;;16.00;99.90;;;;;;5094930;28;19923;-71
2022/06/03 00:33:15;;;;;;;;;;;16.00;99.90;;;;;;5094847;28;19912;-70
2022/06/03 00:35:45;;;;;;;;;;;15.90;99.90;;;;;;5094825;28;19912;-71
2022/06/03 00:38:17;;;;;;;;;;;15.90;99.90;;;;;;5094559;28;19912;-70
2022/06/03 00:40:45;;;;;;;;;;;15.90;99.90;;;;;;5093221;28;19915;-70
2022/06/03 00:43:11;;;;;;;;;;;15.80;99.90;;;;;;5094430;28;19972;-71
2022/06/03 00:45:55;;;;;;;;;;;15.80;99.90;;;;;;5094429;28;19966;-70
2022/06/03 00:48:39;;;;;;;;;;;15.80;99.90;;;;;;5094239;28;19955;-70
2022/06/03 00:51:20;;;;;;;;;;;15.80;99.90;;;;;;5094689;28;20415;-70
2022/06/03 00:53:52;;;;;;;;;;;15.70;99.90;;;;;;5092748;28;19963;-71
2022/06/03 00:56:47;;;;;;;;;;;15.80;99.90;;;;;;5094487;28;20046;-70
2022/06/03 00:59:21;;;;;;;;;;;15.80;99.90;;;;;;5080882;28;20011;-70
2022/06/03 01:01:59;;;;;;;;;;;15.70;99.90;;;;;;5093855;28;19943;-70
2022/06/03 01:04:42;;;;;;;;;;;15.70;99.90;;;;;;5094239;28;19920;-71
2022/06/03 01:07:27;;;;;;;;;;;15.70;99.90;;;;;;5092546;28;20006;-70
2022/06/03 01:10:12;;;;;;;;;;;15.70;99.90;;;;;;5093656;28;19923;-70
2022/06/03 01:12:37;;;;;;;;;;;15.70;99.90;;;;;;5093828;28;20000;-70
2022/06/03 01:15:09;;;;;;;;;;;15.70;99.90;;;;;;5093813;28;20003;-70
2022/06/03 01:17:34;;;;;;;;;;;15.70;99.90;;;;;;5093657;28;19927;-70
2022/06/03 01:20:09;;;;;;;;;;;15.70;99.90;;;;;;5093793;28;20334;-70
2022/06/03 01:22:37;;;;;;;;;;;15.60;99.90;;;;;;5093445;28;20015;-70
2022/06/03 01:25:10;;;;;;;;;;;15.60;99.90;;;;;;5093649;28;20278;-71
2022/06/03 01:27:54;;;;;;;;;;;15.60;99.90;;;;;;5093480;28;19916;-70
2022/06/03 01:30:41;;;;;;;;;;;15.60;99.90;;;;;;5093339;28;19912;-70
2022/06/03 01:33:32;;;;;;;;;;;15.60;99.90;;;;;;5093514;28;19923;-71
2022/06/03 01:35:58;;;;;;;;;;;15.60;99.90;;;;;;5069490;28;19919;-70
2022/06/03 01:38:23;;;;;;;;;;;15.60;99.90;;;;;;5093491;28;20378;-70
2022/06/03 01:41:07;;;;;;;;;;;15.50;99.90;;;;;;5093598;28;20280;-70
2022/06/03 01:43:51;;;;;;;;;;;15.60;99.90;;;;;;5093308;28;20017;-71
2022/06/03 01:46:28;;;;;;;;;;;15.60;99.90;;;;;;5091876;28;19985;-70
2022/06/03 01:48:57;;;;;;;;;;;15.60;99.90;;;;;;5091894;28;19919;-70
2022/06/03 01:51:41;;;;;;;;;;;15.60;99.90;;;;;;5093452;28;20281;-70
2022/06/03 01:54:25;;;;;;;;;;;15.50;99.90;;;;;;5092933;28;20316;-70
2022/06/03 01:56:50;;;;;;;;;;;15.50;99.90;;;;;;5093019;28;19912;-70
2022/06/03 01:59:46;;;;;;;;;;;15.40;99.90;;;;;;5092894;28;20402;-72
2022/06/03 02:02:18;;;;;;;;;;;15.40;99.90;;;;;;5091682;28;19961;-72
2022/06/03 02:04:50;;;;;;;;;;;15.40;99.90;;;;;;5092851;28;20282;-72
2022/06/03 02:07:18;;;;;;;;;;;15.40;99.90;;;;;;5092770;28;19916;-71
2022/06/03 02:09:55;;;;;;;;;;;15.40;99.90;;;;;;5092782;28;19915;-72
2022/06/03 02:12:42;;;;;;;;;;;15.40;99.90;;;;;;5091739;28;19912;-72
2022/06/03 02:15:24;;;;;;;;;;;15.40;99.90;;;;;;5092762;28;19927;-71
2022/06/03 02:17:50;;;;;;;;;;;15.30;99.90;;;;;;5091277;28;20024;-71
2022/06/03 02:20:27;;;;;;;;;;;15.30;99.90;;;;;;5090651;28;20003;-71
2022/06/03 02:22:59;;;;;;;;;;;15.30;99.90;;;;;;5092421;28;19924;-71
2022/06/03 02:25:33;;;;;;;;;;;15.20;99.90;;;;;;5092523;28;20215;-71
2022/06/03 02:28:06;;;;;;;;;;;15.30;99.90;;;;;;5092424;28;20272;-72
2022/06/03 02:30:51;;;;;;;;;;;15.20;99.90;;;;;;5076075;28;19913;-71
2022/06/03 02:33:38;;;;;;;;;;;15.20;99.90;;;;;;5072161;28;19913;-71
2022/06/03 02:36:23;;;;;;;;;;;15.20;99.90;;;;;;5072414;28;19916;-71
2022/06/03 02:39:03;;;;;;;;;;;15.20;99.90;;;;;;5070734;28;19912;-71
2022/06/03 02:41:29;;;;;;;;;;;15.20;99.90;;;;;;5071857;28;20372;-72
2022/06/03 02:44:13;;;;;;;;;;;15.20;99.90;;;;;;5071993;28;19913;-72
2022/06/03 02:46:52;;;;;;;;;;;15.20;99.90;;;;;;5070436;28;19925;-71
2022/06/03 02:49:20;;;;;;;;;;;15.20;99.90;;;;;;5071903;28;20344;-71
2022/06/03 02:52:05;;;;;;;;;;;15.20;99.90;;;;;;5071807;28;19960;-71
2022/06/03 02:54:34;;;;;;;;;;;15.20;99.90;;;;;;5071905;28;19927;-71
2022/06/03 02:56:59;;;;;;;;;;;15.10;99.90;;;;;;5071778;28;19919;-71
2022/06/03 02:59:31;;;;;;;;;;;15.10;99.90;;;;;;5071681;28;19913;-71
2022/06/03 03:01:59;;;;;;;;;;;15.10;99.90;;;;;;5071747;28;19919;-71
2022/06/03 03:04:43;;;;;;;;;;;15.10;99.90;;;;;;5071664;28;20356;-71
2022/06/03 03:07:11;;;;;;;;;;;15.10;99.90;;;;;;5071588;28;19916;-71
2022/06/03 03:09:43;;;;;;;;;;;15.00;99.90;;;;;;5071778;28;20361;-71
2022/06/03 03:12:20;;;;;;;;;;;15.00;99.90;;;;;;5071507;28;19912;-71
2022/06/03 03:15:03;;;;;;;;;;;15.00;99.90;;;;;;5071701;28;19912;-71
2022/06/03 03:17:42;;;;;;;;;;;15.00;99.90;;;;;;5070394;28;19992;-72
2022/06/03 03:20:10;;;;;;;;;;;15.00;99.90;;;;;;5071666;28;19912;-72
2022/06/03 03:22:48;;;;;;;;;;;15.10;99.90;;;;;;5071200;28;20248;-71
2022/06/03 03:25:40;;;;;;;;;;;15.00;99.90;;;;;;5071589;28;20007;-71
2022/06/03 03:28:08;;;;;;;;;;;14.90;99.90;;;;;;5069148;28;19922;-70
2022/06/03 03:30:36;;;;;;;;;;;14.80;99.90;;;;;;5071624;28;19978;-72
2022/06/03 03:33:10;;;;;;;;;;;14.70;99.90;;;;;;5073086;28;19923;-71
2022/06/03 03:35:45;;;;;;;;;;;14.70;99.90;;;;;;5075693;28;19962;-72
2022/06/03 03:38:13;;;;;;;;;;;14.70;99.90;;;;;;5075296;28;20283;-71
2022/06/03 03:41:14;;;;;;;;;;;14.70;99.90;;;;;;5075284;28;19908;-69
2022/06/03 03:43:48;;;;;;;;;;;14.70;99.90;;;;;;5032958;28;20336;-70
2022/06/03 03:46:22;;;;;;;;;;;14.70;99.90;;;;;;5068997;28;19970;-70
2022/06/03 03:49:07;;;;;;;;;;;14.70;99.90;;;;;;5075298;28;20007;-70
2022/06/03 03:51:47;;;;;;;;;;;14.80;99.90;;;;;;5075045;28;19917;-70
2022/06/03 03:54:31;;;;;;;;;;;14.80;99.90;;;;;;5075042;28;19908;-70
2022/06/03 03:57:15;;;;;;;;;;;14.80;99.90;;;;;;5075016;28;20019;-69
2022/06/03 03:59:59;;;;;;;;;;;14.80;99.90;;;;;;5074814;28;19909;-70
2022/06/03 04:02:34;;;;;;;;;;;14.70;99.90;;;;;;5073551;28;20487;-69
2022/06/03 04:05:17;;;;;;;;;;;14.70;99.90;;;;;;5074906;28;19917;-70
2022/06/03 04:07:43;;;;;;;;;;;14.70;99.90;;;;;;5074671;28;19932;-69
2022/06/03 04:10:11;;;;;;;;;;;14.60;99.90;;;;;;5074740;28;19908;-69
2022/06/03 04:12:43;;;;;;;;;;;14.70;99.90;;;;;;5074557;28;19921;-70
2022/06/03 04:15:27;;;;;;;;;;;14.70;99.90;;;;;;5074827;28;20536;-72
2022/06/03 04:17:55;;;;;;;;;;;14.70;99.90;;;;;;5074448;28;20426;-70
2022/06/03 04:20:21;;;;;;;;;;;14.80;99.90;;;;;;5074759;28;19960;-70
2022/06/03 04:22:47;;;;;;;;;;;14.80;99.90;;;;;;5074361;28;19980;-70
2022/06/03 04:25:48;;;;;;;;;;;14.90;99.90;;;;;;5074564;28;19917;-70
2022/06/03 04:28:16;;;;;;;;;;;14.90;99.90;;;;;;5032158;28;19995;-70
2022/06/03 04:31:00;;;;;;;;;;;15.00;99.90;;;;;;5066384;28;20360;-71
2022/06/03 04:33:26;;;;;;;;;;;15.10;99.90;;;;;;5074112;28;19920;-70
2022/06/03 04:36:18;;;;;;;;;;;15.10;99.90;;;;;;5073073;28;19920;-70
2022/06/03 04:38:46;;;;;;;;;;;15.10;99.90;;;;;;5071692;28;19920;-70
2022/06/03 04:41:18;;;;;;;;;;;15.10;99.90;;;;;;5074598;28;19913;-70
2022/06/03 04:43:52;;;;;;;;;;;15.10;99.90;;;;;;5073435;28;19916;-70
2022/06/03 04:46:17;;;;;;;;;;;15.20;99.90;;;;;;5072617;28;20018;-70
2022/06/03 04:48:43;;;;;;;;;;;15.20;99.90;;;;;;5072692;28;20352;-70
2022/06/03 04:51:28;;;;;;;;;;;15.20;99.90;;;;;;5074392;28;20426;-70
2022/06/03 04:54:12;;;;;;;;;;;15.20;99.90;;;;;;5072582;28;19913;-70
2022/06/03 04:56:37;;;;;;;;;;;15.30;99.90;;;;;;5073892;28;19917;-69
2022/06/03 04:59:12;;;;;;;;;;;15.40;99.90;;;;;;5072318;28;19919;-70
2022/06/03 05:02:04;;;;;;;;;;;15.50;99.90;;;;;;5072536;28;20394;-70
2022/06/03 05:04:49;;;;;;;;;;;15.60;99.90;;;;;;5071471;28;19956;-72
2022/06/03 05:07:33;;;;;;;;;;;15.70;99.90;;;;;;5073494;28;19927;-70
2022/06/03 05:10:04;;;;;;;;;;;15.70;99.90;;;;;;5073381;28;19962;-69
2022/06/03 05:12:39;;;;;;;;;;;15.70;99.90;;;;;;5074013;28;19917;-69
2022/06/03 05:15:19;;;;;;;;;;;15.80;99.90;;;;;;5074009;28;19920;-70
2022/06/03 05:18:08;;;;;;;;;;;15.80;99.90;;;;;;5073497;28;20284;-70
2022/06/03 05:20:49;;;;;;;;;;;15.80;99.90;;;;;;5073507;28;20349;-70
2022/06/03 05:23:15;;;;;;;;;;;15.80;99.90;;;;;;5072967;28;19928;-70
2022/06/03 05:25:54;;;;;;;;;;;15.80;99.90;;;;;;5073494;28;20006;-70
2022/06/03 05:28:36;;;;;;;;;;;15.90;99.90;;;;;;5073144;28;19912;-71
2022/06/03 05:31:20;;;;;;;;;;;15.90;99.90;;;;;;5072072;28;19915;-70
2022/06/03 05:34:00;;;;;;;;;;;16.00;99.90;;;;;;5071551;28;19934;-71
2022/06/03 05:36:46;;;;;;;;;;;16.00;99.90;;;;;;5072904;28;20394;-70
2022/06/03 05:39:44;;;;;;;;;;;16.10;99.90;;;;;;5065866;28;20022;-70
2022/06/03 05:42:28;;;;;;;;;;;16.20;99.90;;;;;;5049754;28;19923;-70
2022/06/03 05:45:02;;;;;;;;;;;16.30;99.90;;;;;;5072954;28;20379;-70
2022/06/03 05:47:35;;;;;;;;;;;16.40;99.90;;;;;;5071373;28;20295;-70
2022/06/03 05:50:17;;;;;;;;;;;16.50;99.90;;;;;;5073084;28;20284;-70
2022/06/03 05:52:49;;;;;;;;;;;16.60;99.90;;;;;;5073181;28;19917;-70
2022/06/03 05:55:36;;;;;;;;;;;16.60;99.90;;;;;;5071863;28;19913;-70
2022/06/03 05:58:13;;;;;;;;;;;16.60;99.90;;;;;;5072629;28;20380;-70
2022/06/03 06:00:54;;;;;;;;;;;16.70;99.90;;;;;;5072886;28;19945;-69
2022/06/03 06:03:23;;;;;;;;;;;16.70;99.90;;;;;;5072516;28;19917;-71
2022/06/03 06:06:00;;;;;;;;;;;16.70;99.90;;;;;;5072663;28;20253;-70
2022/06/03 06:08:35;;;;;;;;;;;16.80;99.90;;;;;;5072310;28;19927;-69
2022/06/03 06:11:03;;;;;;;;;;;16.60;99.90;;;;;;5071301;28;19993;-71
2022/06/03 06:13:31;;;;;;;;;;;16.60;99.90;;;;;;5072453;28;19917;-70
2022/06/03 06:16:09;;;;;;;;;;;16.70;99.90;;;;;;5071003;28;20402;-70
2022/06/03 06:18:54;;;;;;;;;;;16.70;99.90;;;;;;5071037;28;19932;-71
2022/06/03 06:21:22;;;;;;;;;;;16.70;99.90;;;;;;5072843;28;20272;-69
2022/06/03 06:23:59;;;;;;;;;;;16.80;99.90;;;;;;5071796;28;19955;-70
2022/06/03 06:26:40;;;;;;;;;;;16.80;99.90;;;;;;5072325;28;20360;-70
2022/06/03 06:29:05;;;;;;;;;;;16.80;99.90;;;;;;5071751;28;19931;-72
2022/06/03 06:31:49;;;;;;;;;;;16.90;99.90;;;;;;5071852;28;19912;-70
2022/06/03 06:34:24;;;;;;;;;;;16.90;99.90;;;;;;5072273;28;19916;-71
2022/06/03 06:36:52;;;;;;;;;;;17.00;99.90;;;;;;5070520;28;20364;-70
2022/06/03 06:39:24;;;;;;;;;;;17.00;99.90;;;;;;5071652;28;19909;-70
2022/06/03 06:41:56;;;;;;;;;;;17.10;99.90;;;;;;5071740;28;20003;-70
2022/06/03 06:44:37;;;;;;;;;;;17.10;99.90;;;;;;5071803;28;20135;-70
2022/06/03 06:47:21;;;;;;;;;;;17.10;99.90;;;;;;5071694;28;19939;-70
2022/06/03 06:50:06;;;;;;;;;;;17.20;99.90;;;;;;5071708;28;20370;-70
2022/06/03 06:52:34;;;;;;;;;;;17.40;99.90;;;;;;5071660;28;20716;-70
2022/06/03 06:55:09;;;;;;;;;;;17.40;99.90;;;;;;5071551;28;19913;-70
2022/06/03 06:57:39;;;;;;;;;;;17.40;99.90;;;;;;5071411;28;20386;-70
2022/06/03 07:00:27;;;;;;;;;;;17.50;99.90;;;;;;5071542;28;19918;-70
2022/06/03 07:03:01;;;;;;;;;;;17.60;99.90;;;;;;5071610;28;19916;-70
2022/06/03 07:05:45;;;;;;;;;;;17.60;99.90;;;;;;5071176;28;19916;-70
2022/06/03 07:08:10;;;;;;;;;;;17.60;99.90;;;;;;5069998;28;20318;-70
2022/06/03 07:10:40;;;;;;;;;;;17.60;99.90;;;;;;5071852;28;19913;-70
2022/06/03 07:13:11;;;;;;;;;;;17.70;99.90;;;;;;5071302;28;19917;-70
2022/06/03 07:15:43;;;;;;;;;;;17.90;99.90;;;;;;5071315;28;20347;-70
2022/06/03 07:21:06;;;;;;;;;;;18.10;99.90;;;;;;5071537;28;20008;-70
2022/06/03 07:23:42;;;;;;;;;;;18.20;99.90;;;;;;5071259;28;20359;-71
2022/06/03 07:26:17;;;;;;;;;;;18.40;99.90;;;;;;5069896;28;20433;-71
2022/06/03 07:29:06;;;;;;;;;;;18.50;99.90;;;;;;5071127;28;19912;-70
2022/06/03 07:31:37;;;;;;;;;;;18.60;99.90;;;;;;5072540;28;19916;-64
2022/06/03 07:34:14;;;;;;;;;;;18.80;99.90;;;;;;5084939;28;19920;-64
2022/06/03 07:36:40;;;;;;;;;;;19.00;99.90;;;;;;5070830;28;19921;-64
2022/06/03 07:39:24;;;;;;;;;;;19.20;99.90;;;;;;5084991;28;19981;-64
2022/06/03 07:41:53;;;;;;;;;;;19.40;99.90;;;;;;5078796;28;19917;-68
2022/06/03 07:44:23;;;;;;;;;;;19.60;99.90;;;;;;5072415;28;19908;-68
2022/06/03 07:46:53;;;;;;;;;;;19.70;99.90;;;;;;5076755;28;19928;-67
2022/06/03 07:49:21;;;;;;;;;;;19.70;99.90;;;;;;5071194;28;20254;-68
2022/06/03 07:51:48;;;;;;;;;;;19.70;99.90;;;;;;5088731;28;19920;-68
2022/06/03 07:54:20;;;;;;;;;;;19.80;99.90;;;;;;5090163;28;20178;-68
2022/06/03 07:56:45;;;;;;;;;;;20.00;99.90;;;;;;5085384;28;19961;-67
2022/06/03 07:59:18;;;;;;;;;;;20.10;99.90;;;;;;5070626;28;19912;-68
2022/06/03 08:01:55;;;;;;;;;;;20.30;99.90;;;;;;5088269;28;19934;-69
2022/06/03 08:04:28;;;;;;;;;;;20.50;99.90;;;;;;5090092;28;19912;-68
2022/06/03 08:12:30;;;;;;;;;;;20.90;99.90;;;;;;5085487;28;20423;-69
2022/06/03 08:14:55;;;;;;;;;;;21.10;99.90;;;;;;5086535;28;20043;-67
2022/06/03 08:17:23;;;;;;;;;;;21.20;99.90;;;;;;5080096;28;20346;-67
2022/06/03 08:19:49;;;;;;;;;;;21.20;99.90;;;;;;5081594;28;20430;-67
2022/06/03 08:22:16;;;;;;;;;;;21.40;99.90;;;;;;5079106;28;19920;-67
2022/06/03 08:24:45;;;;;;;;;;;21.60;99.90;;;;;;5080878;28;20012;-67
2022/06/03 08:27:14;;;;;;;;;;;21.70;99.90;;;;;;5083592;28;19928;-67
2022/06/03 08:29:48;;;;;;;;;;;21.70;99.90;;;;;;5083216;28;19912;-68
2022/06/03 08:32:16;;;;;;;;;;;21.70;99.90;;;;;;5077239;28;19952;-68
2022/06/03 08:34:45;;;;;;;;;;;21.90;99.90;;;;;;5080651;28;20343;-67
2022/06/03 08:37:15;;;;;;;;;;;22.10;99.90;;;;;;5084861;28;20336;-67
2022/06/03 08:39:42;;;;;;;;;;;22.20;99.90;;;;;;5082188;28;19999;-66
2022/06/03 08:42:13;;;;;;;;;;;22.20;99.90;;;;;;5073342;28;19924;-68
2022/06/03 08:44:39;;;;;;;;;;;22.30;99.90;;;;;;5073489;28;20364;-69
2022/06/03 08:47:20;;;;;;;;;;;22.50;99.90;;;;;;5073702;28;19953;-66
2022/06/03 08:49:46;;;;;;;;;;;22.60;99.90;;;;;;5073809;28;20034;-70
2022/06/03 08:52:14;;;;;;;;;;;22.90;99.90;;;;;;5074137;28;19934;-66
2022/06/03 08:54:52;;;;;;;;;;;23.10;99.90;;;;;;5073926;28;19916;-68
2022/06/03 08:57:26;;;;;;;;;;;23.30;99.90;;;;;;5075516;28;19917;-67
2022/06/03 08:59:57;;;;;;;;;;;23.20;99.50;;;;;;5080064;28;20296;-67
2022/06/03 09:02:27;;;;;;;;;;;23.20;99.60;;;;;;5073407;28;19916;-68
2022/06/03 09:05:02;;;;;;;;;;;23.20;99.00;;;;;;5080766;28;19912;-67
2022/06/03 09:07:48;;;;;;;;;;;23.40;98.60;;;;;;5076324;28;20255;-68
2022/06/03 09:10:16;;;;;;;;;;;23.70;97.80;;;;;;5091537;28;20386;-68
2022/06/03 09:12:56;;;;;;;;;;;23.90;97.60;;;;;;5091814;28;19917;-67
2022/06/03 09:15:23;;;;;;;;;;;24.20;97.10;;;;;;5073308;28;20034;-67
2022/06/03 09:17:52;;;;;;;;;;;24.40;95.50;;;;;;5090728;28;19923;-67
2022/06/03 09:20:36;;;;;;;;;;;24.60;94.80;;;;;;5091511;28;20301;-68
2022/06/03 09:23:07;;;;;;;;;;;24.70;93.90;;;;;;5085010;28;20581;-69
2022/06/03 09:25:34;;;;;;;;;;;24.50;93.90;;;;;;5078167;28;19976;-68
2022/06/03 09:28:02;;;;;;;;;;;24.30;93.90;;;;;;5072471;28;19916;-68
2022/06/03 09:30:34;;;;;;;;;;;24.30;93.80;;;;;;5075848;28;20398;-69
2022/06/03 09:33:02;;;;;;;;;;;24.30;93.80;;;;;;5090892;28;20368;-69
2022/06/03 09:35:28;;;;;;;;;;;24.40;93.00;;;;;;5072891;28;19912;-68
2022/06/03 09:37:58;;;;;;;;;;;24.60;92.50;;;;;;5078885;28;19916;-68
2022/06/03 09:40:28;;;;;;;;;;;24.90;91.80;;;;;;5087032;28;19912;-68
2022/06/03 09:43:13;;;;;;;;;;;24.90;91.60;;;;;;5081821;28;19916;-69
2022/06/03 09:45:39;;;;;;;;;;;25.00;91.30;;;;;;5064671;28;19977;-69
2022/06/03 09:48:05;;;;;;;;;;;25.20;91.50;;;;;;5073552;28;19978;-68
2022/06/03 09:50:31;;;;;;;;;;;25.30;90.40;;;;;;5083373;28;20302;-76
2022/06/03 09:53:01;;;;;;;;;;;25.40;90.40;;;;;;5090179;28;19924;-75
2022/06/03 09:55:32;;;;;;;;;;;25.60;90.60;;;;;;5092676;28;19909;-75
2022/06/03 09:57:59;;;;;;;;;;;25.70;89.70;;;;;;5092802;28;19916;-76
2022/06/03 10:00:28;;;;;;;;;;;25.80;90.00;;;;;;5084416;28;19916;-67
2022/06/03 10:02:56;;;;;;;;;;;26.10;89.40;;;;;;5083133;28;19920;-69
2022/06/03 10:05:22;;;;;;;;;;;26.30;87.60;;;;;;5082946;28;19963;-76
2022/06/03 10:07:48;;;;;;;;;;;26.40;86.20;;;;;;5092520;28;19971;-76
2022/06/03 10:13:00;;;;;;;;;;;26.30;84.10;;;;;;5075083;28;19923;-77
2022/06/03 10:15:39;;;;;;;;;;;26.40;83.80;;;;;;5071311;28;19916;-77
2022/06/03 10:18:11;;;;;;;;;;;26.70;82.10;;;;;;5076657;28;19955;-76
2022/06/03 10:20:37;;;;;;;;;;;26.90;79.60;;;;;;5093754;28;19916;-77
2022/06/03 10:23:04;;;;;;;;;;;27.00;80.00;;;;;;5092915;28;19969;-76
2022/06/03 10:25:29;;;;;;;;;;;26.90;77.90;;;;;;5092716;28;20519;-77
2022/06/03 10:27:55;;;;;;;;;;;26.90;76.90;;;;;;5090524;28;20025;-76
2022/06/03 10:30:26;;;;;;;;;;;26.90;77.30;;;;;;5092372;28;19959;-76
2022/06/03 10:32:53;;;;;;;;;;;27.00;76.80;;;;;;5089572;28;21397;-75
2022/06/03 10:35:19;;;;;;;;;;;27.30;75.70;;;;;;5081701;28;19913;-76
2022/06/03 10:37:52;;;;;;;;;;;27.40;75.60;;;;;;5072322;28;19916;-76
2022/06/03 10:40:19;;;;;;;;;;;27.50;75.00;;;;;;5072779;28;19956;-77
2022/06/03 10:42:45;;;;;;;;;;;27.70;74.60;;;;;;5083502;28;19920;-76
2022/06/03 10:45:10;;;;;;;;;;;27.90;73.80;;;;;;5092125;28;20348;-76
2022/06/03 10:47:38;;;;;;;;;;;27.80;74.10;;;;;;5091705;28;20336;-75
2022/06/03 10:50:06;;;;;;;;;;;27.90;73.20;;;;;;5072891;28;19916;-75
2022/06/03 11:01:08;;;;;;;;;;;27.90;72.10;;;;;;5090838;28;20379;-74
2022/06/03 11:03:34;;;;;;;;;;;27.90;72.40;;;;;;5090472;28;19923;-74
2022/06/03 11:06:07;;;;;;;;;;;27.90;71.70;;;;;;5089363;28;19985;-75
2022/06/03 11:08:52;;;;;;;;;;;27.90;72.00;;;;;;5092220;28;20291;-75
2022/06/03 11:11:36;;;;;;;;;;;27.90;71.80;;;;;;5087748;28;19927;-68
2022/06/03 11:14:20;;;;;;;;;;;27.80;71.20;;;;;;5074204;28;20288;-68
2022/06/03 11:16:49;;;;;;;;;;;27.90;71.10;;;;;;5075637;28;19920;-70
2022/06/03 11:19:16;;;;;;;;;;;27.90;69.70;;;;;;5076148;28;20309;-67
2022/06/03 11:21:42;;;;;;;;;;;27.70;69.60;;;;;;5078673;28;19923;-68
2022/06/03 11:24:07;;;;;;;;;;;27.60;70.50;;;;;;5073280;28;19920;-71
2022/06/03 11:26:35;;;;;;;;;;;27.50;71.80;;;;;;5080186;28;19997;-68
2022/06/03 11:29:04;;;;;;;;;;;27.40;71.60;;;;;;5076896;28;19912;-68
2022/06/03 11:31:32;;;;;;;;;;;27.30;71.10;;;;;;5076463;28;19974;-68
2022/06/03 11:34:16;;;;;;;;;;;27.20;71.90;;;;;;5079957;28;20035;-68
2022/06/03 11:36:45;;;;;;;;;;;27.30;71.00;;;;;;5069795;28;19927;-69
2022/06/03 11:39:22;;;;;;;;;;;27.40;70.00;;;;;;5073178;28;19916;-69
2022/06/03 11:41:52;;;;;;;;;;;27.60;70.50;;;;;;5074345;28;19920;-69
2022/06/03 11:44:20;;;;;;;;;;;27.80;70.30;;;;;;5082695;28;20003;-70
2022/06/03 11:46:45;;;;;;;;;;;27.70;70.10;;;;;;5073607;28;19928;-65
2022/06/03 11:49:14;;;;;;;;;;;27.50;70.00;;;;;;5083253;28;19920;-69
2022/06/03 11:51:39;;;;;;;;;;;27.50;69.70;;;;;;5071353;28;20023;-66
2022/06/03 11:54:10;;;;;;;;;;;27.40;70.50;;;;;;5071530;28;20039;-66
2022/06/03 11:56:36;;;;;;;;;;;27.20;70.00;;;;;;5080949;28;19917;-67
2022/06/03 11:59:13;;;;;;;;;;;27.10;70.80;;;;;;5085285;28;19913;-68
2022/06/03 12:01:51;;;;;;;;;;;27.20;70.60;;;;;;5094846;28;19920;-67
2022/06/03 12:04:36;;;;;;;;;;;27.10;71.00;;;;;;5076750;28;20009;-67
2022/06/03 12:07:21;;;;;;;;;;;27.00;70.00;;;;;;5084190;28;19928;-67
2022/06/03 12:09:47;;;;;;;;;;;26.60;71.10;;;;;;5112647;28;19911;-67
2022/06/03 12:15:32;;;;;;;;;;;26.30;70.90;;;;;;5075790;28;19947;-67
2022/06/03 12:18:11;;;;;;;;;;;26.10;70.50;;;;;;5075060;28;19921;-67
2022/06/03 12:20:49;;;;;;;;;;;26.10;72.30;;;;;;5083031;28;19912;-69
2022/06/03 12:23:15;;;;;;;;;;;26.10;71.60;;;;;;5114883;28;19947;-66
2022/06/03 12:25:40;;;;;;;;;;;26.10;73.20;;;;;;5077222;28;20641;-67
2022/06/03 12:28:13;;;;;;;;;;;25.80;73.70;;;;;;5096522;28;19924;-68
2022/06/03 12:30:45;;;;;;;;;;;25.60;74.80;;;;;;5073917;28;19965;-69
2022/06/03 12:33:20;;;;;;;;;;;25.50;74.70;;;;;;5081643;28;19920;-68
2022/06/03 12:35:52;;;;;;;;;;;25.40;75.00;;;;;;5092440;28;19916;-67
2022/06/03 12:38:20;;;;;;;;;;;25.20;74.50;;;;;;5079323;28;20295;-68
2022/06/03 12:40:46;;;;;;;;;;;25.10;74.60;;;;;;5076718;28;19999;-68
2022/06/03 12:43:50;;;;;;;;;;;25.10;75.60;;;;;;5084194;28;20025;-67
2022/06/03 12:46:34;;;;;;;;;;;25.00;75.20;;;;;;5079344;28;19916;-68
2022/06/03 12:49:00;;;;;;;;;;;24.80;75.60;;;;;;5081051;28;20015;-69
2022/06/03 12:51:29;;;;;;;;;;;24.70;77.20;;;;;;5088327;28;19998;-67
2022/06/03 12:53:57;;;;;;;;;;;24.70;76.20;;;;;;5094438;28;20413;-67
2022/06/03 12:56:42;;;;;;;;;;;24.50;78.10;;;;;;5084133;28;20061;-67
2022/06/03 12:59:15;;;;;;;;;;;24.40;77.30;;;;;;5065963;28;19916;-66
2022/06/03 13:01:44;;;;;;;;;;;24.40;77.10;;;;;;5078090;28;19962;-67
2022/06/03 13:04:24;;;;;;;;;;;24.40;76.70;;;;;;5080672;28;20007;-66
2022/06/03 13:07:09;;;;;;;;;;;24.40;77.90;;;;;;5074786;28;20229;-66
2022/06/03 13:09:53;;;;;;;;;;;24.20;78.60;;;;;;5084514;28;19919;-66
2022/06/03 13:12:22;;;;;;;;;;;24.10;78.40;;;;;;5073308;28;19916;-66
2022/06/03 13:14:47;;;;;;;;;;;24.10;78.10;;;;;;5073255;28;20253;-66
2022/06/03 13:17:31;;;;;;;;;;;23.90;78.90;;;;;;5070372;28;19924;-66
2022/06/03 13:20:00;;;;;;;;;;;24.10;78.80;;;;;;5080708;28;19912;-67
2022/06/03 13:22:27;;;;;;;;;;;23.80;78.90;;;;;;5092082;28;19927;-67
2022/06/03 13:25:11;;;;;;;;;;;23.80;79.60;;;;;;5080421;28;19923;-74
2022/06/03 13:27:37;;;;;;;;;;;23.80;79.20;;;;;;5068690;28;19921;-73
2022/06/03 13:30:10;;;;;;;;;;;23.70;80.00;;;;;;5069792;28;20415;-73
2022/06/03 13:32:36;;;;;;;;;;;23.70;79.50;;;;;;5072137;28;20296;-73
2022/06/03 13:35:22;;;;;;;;;;;23.70;79.40;;;;;;5072308;28;19916;-73
2022/06/03 13:37:51;;;;;;;;;;;23.70;80.70;;;;;;5072800;28;19927;-73
2022/06/03 13:40:35;;;;;;;;;;;23.50;79.70;;;;;;5073007;28;19909;-73
2022/06/03 13:43:01;;;;;;;;;;;23.40;80.10;;;;;;5072823;28;19922;-74
2022/06/03 13:45:38;;;;;;;;;;;23.20;80.70;;;;;;5071190;28;19916;-73
2022/06/03 13:48:11;;;;;;;;;;;23.10;81.10;;;;;;5072757;28;19921;-73
2022/06/03 13:50:37;;;;;;;;;;;23.10;80.40;;;;;;5070517;28;20057;-73
2022/06/03 13:53:04;;;;;;;;;;;23.10;81.40;;;;;;5072788;28;19923;-73
2022/06/03 13:55:35;;;;;;;;;;;23.00;81.00;;;;;;5071727;28;19909;-73
2022/06/03 13:58:20;;;;;;;;;;;23.00;81.40;;;;;;5072491;28;19916;-73
2022/06/03 14:00:48;;;;;;;;;;;23.00;81.30;;;;;;5072466;28;20387;-73
2022/06/03 14:03:16;;;;;;;;;;;22.90;81.70;;;;;;5072316;28;20376;-74
2022/06/03 14:05:56;;;;;;;;;;;22.80;81.40;;;;;;5072541;28;19916;-74
2022/06/03 14:08:36;;;;;;;;;;;22.80;82.10;;;;;;5071202;28;19927;-74
2022/06/03 14:11:04;;;;;;;;;;;22.70;82.50;;;;;;5072997;28;20007;-74
2022/06/03 14:13:48;;;;;;;;;;;22.70;83.40;;;;;;5072420;28;19917;-75
2022/06/03 14:16:14;;;;;;;;;;;22.70;82.80;;;;;;5071441;28;19912;-74
2022/06/03 14:18:51;;;;;;;;;;;22.80;83.00;;;;;;5072157;28;19917;-74
2022/06/03 14:21:22;;;;;;;;;;;22.70;83.00;;;;;;5072394;28;19916;-73
2022/06/03 14:23:49;;;;;;;;;;;22.70;82.00;;;;;;5071778;28;20062;-74
2022/06/03 14:26:20;;;;;;;;;;;22.70;81.70;;;;;;5072312;28;19916;-74
2022/06/03 14:28:57;;;;;;;;;;;22.70;81.10;;;;;;5071871;28;20009;-74
2022/06/03 14:31:29;;;;;;;;;;;22.70;81.30;;;;;;5072258;28;19919;-74
2022/06/03 14:33:58;;;;;;;;;;;22.70;81.80;;;;;;5071956;28;19912;-73
2022/06/03 14:36:25;;;;;;;;;;;22.70;81.90;;;;;;5070371;28;19974;-73
2022/06/03 14:38:50;;;;;;;;;;;22.60;81.50;;;;;;5071904;28;20272;-73
2022/06/03 14:41:25;;;;;;;;;;;22.50;83.40;;;;;;5072132;28;19916;-73
2022/06/03 14:43:50;;;;;;;;;;;22.50;83.40;;;;;;5071757;28;19912;-74
2022/06/03 14:46:21;;;;;;;;;;;22.50;82.70;;;;;;5070317;28;19950;-76
2022/06/03 14:48:49;;;;;;;;;;;22.50;82.60;;;;;;5071566;28;19923;-74
2022/06/03 14:51:23;;;;;;;;;;;22.50;82.80;;;;;;5072113;28;19981;-74
2022/06/03 14:53:53;;;;;;;;;;;22.50;82.50;;;;;;5071746;28;19970;-73
2022/06/03 14:56:28;;;;;;;;;;;22.50;82.70;;;;;;5072054;28;19912;-74
2022/06/03 14:58:56;;;;;;;;;;;22.50;82.70;;;;;;5071310;28;19938;-74
2022/06/03 15:01:45;;;;;;;;;;;22.50;82.70;;;;;;5071287;28;19919;-74
2022/06/03 15:04:10;;;;;;;;;;;22.40;81.90;;;;;;5071336;28;19943;-74
2022/06/03 15:06:56;;;;;;;;;;;22.30;82.60;;;;;;5071210;28;19920;-74
2022/06/03 15:09:26;;;;;;;;;;;22.20;83.30;;;;;;5071102;28;19909;-75
2022/06/03 15:11:54;;;;;;;;;;;22.20;84.50;;;;;;5071730;28;20276;-74
2022/06/03 15:14:21;;;;;;;;;;;22.20;84.80;;;;;;5070082;28;19947;-74
2022/06/03 15:16:51;;;;;;;;;;;22.20;84.60;;;;;;5071139;28;20372;-74
2022/06/03 15:19:32;;;;;;;;;;;22.20;84.40;;;;;;5070003;28;19912;-74